createdAt,value
2018-05-09T00:02:28.208Z,5.65
2018-05-09T00:05:02.539Z,6.60
2018-05-09T00:07:36.264Z,5.60
2018-05-09T00:10:10.570Z,6.60
2018-05-09T00:12:44.265Z,5.72
2018-05-09T00:15:17.867Z,5.85
2018-05-09T00:17:51.408Z,5.78
2018-05-09T00:20:25.092Z,6.40
2018-05-09T00:22:58.681Z,6.30
2018-05-09T00:25:32.229Z,5.15
2018-05-09T00:28:05.945Z,6.18
2018-05-09T00:30:39.556Z,6.00
2018-05-09T00:33:13.139Z,6.32
2018-05-09T00:35:46.860Z,5.72
2018-05-09T00:38:20.408Z,7.00
2018-05-09T00:40:53.931Z,6.10
2018-05-09T00:43:28.297Z,6.10
2018-05-09T00:46:01.994Z,7.03
2018-05-09T00:48:35.561Z,6.47
2018-05-09T00:51:09.200Z,6.00
2018-05-09T00:53:42.820Z,6.90
2018-05-09T00:56:16.484Z,6.30
2018-05-09T00:58:50.038Z,6.30
2018-05-09T01:01:23.625Z,6.50
2018-05-09T01:03:57.911Z,5.70
2018-05-09T01:06:31.639Z,7.12
2018-05-09T01:09:06.259Z,7.10
2018-05-09T01:11:39.958Z,6.07
2018-05-09T01:14:13.527Z,6.62
2018-05-09T01:16:47.141Z,6.37
2018-05-09T01:19:20.650Z,7.18
2018-05-09T01:21:55.060Z,7.57
2018-05-09T01:24:29.369Z,7.30
2018-05-09T01:27:03.076Z,9.15
2018-05-09T01:29:37.713Z,7.70
2018-05-09T01:32:11.486Z,6.22
2018-05-09T01:34:45.224Z,6.90
2018-05-09T01:37:18.751Z,6.50
2018-05-09T01:39:52.311Z,5.70
2018-05-09T01:42:26.607Z,6.55
2018-05-09T01:45:00.120Z,7.07
2018-05-09T01:47:33.712Z,6.50
2018-05-09T01:50:07.242Z,6.18
2018-05-09T01:52:40.795Z,5.53
2018-05-09T01:55:14.609Z,8.02
2018-05-09T01:57:49.150Z,6.70
2018-05-09T02:00:23.568Z,6.47
2018-05-09T02:02:57.891Z,6.72
2018-05-09T02:05:31.501Z,6.87
2018-05-09T02:08:05.069Z,7.32
2018-05-09T02:10:39.415Z,7.15
2018-05-09T02:13:13.112Z,7.28
2018-05-09T02:15:46.679Z,5.53
2018-05-09T02:18:21.038Z,7.00
2018-05-09T02:20:54.740Z,8.45
2018-05-09T02:23:28.310Z,6.78
2018-05-09T02:26:01.925Z,6.93
2018-05-09T02:28:35.445Z,7.07
2018-05-09T02:31:09.118Z,7.20
2018-05-09T02:33:42.579Z,7.35
2018-05-09T02:36:16.145Z,6.55
2018-05-09T02:38:49.748Z,6.93
2018-05-09T02:41:23.268Z,6.65
2018-05-09T02:43:56.856Z,7.45
2018-05-09T02:46:30.435Z,7.57
2018-05-09T02:49:03.961Z,7.53
2018-05-09T02:51:37.491Z,7.03
2018-05-09T02:54:11.340Z,6.85
2018-05-09T02:56:44.924Z,8.70
2018-05-09T02:59:18.484Z,7.35
2018-05-09T03:01:52.139Z,7.70
2018-05-09T03:04:25.733Z,7.97
2018-05-09T03:06:59.313Z,7.50
2018-05-09T03:09:32.889Z,7.20
2018-05-09T03:12:06.434Z,6.65
2018-05-09T03:14:39.995Z,7.30
2018-05-09T03:17:13.788Z,7.37
2018-05-09T03:19:47.375Z,7.00
2018-05-09T03:22:21.815Z,8.32
2018-05-09T03:24:55.571Z,6.97
2018-05-09T03:27:29.904Z,7.22
2018-05-09T03:30:03.519Z,7.47
2018-05-09T03:32:37.931Z,8.30
2018-05-09T03:35:11.572Z,8.40
2018-05-09T03:37:46.021Z,7.68
2018-05-09T03:40:19.749Z,7.87
2018-05-09T03:42:53.355Z,6.55
2018-05-09T03:45:27.856Z,8.25
2018-05-09T03:48:01.637Z,7.55
2018-05-09T03:50:35.139Z,8.80
2018-05-09T03:53:08.762Z,8.52
2018-05-09T03:55:42.278Z,7.82
2018-05-09T03:58:15.860Z,7.35
2018-05-09T04:00:49.391Z,6.80
2018-05-09T04:03:34.910Z,8.00
2018-05-09T04:06:20.316Z,8.07
2018-05-09T04:09:06.464Z,7.85
2018-05-09T04:11:40.007Z,7.85
2018-05-09T04:14:13.612Z,7.37
2018-05-09T04:16:47.153Z,8.00
2018-05-09T04:19:20.770Z,8.02
2018-05-09T04:21:54.365Z,7.50
2018-05-09T04:24:28.740Z,7.93
2018-05-09T04:27:02.426Z,7.35
2018-05-09T04:29:36.750Z,6.85
2018-05-09T04:32:10.435Z,8.80
2018-05-09T04:34:44.069Z,7.57
2018-05-09T04:37:17.692Z,7.25
2018-05-09T04:39:51.238Z,6.47
2018-05-09T04:42:25.576Z,8.13
2018-05-09T04:44:59.260Z,8.40
2018-05-09T04:47:32.893Z,8.10
2018-05-09T04:50:06.464Z,8.32
2018-05-09T04:52:40.021Z,8.23
2018-05-09T04:55:13.832Z,8.25
2018-05-09T04:57:47.399Z,8.40
2018-05-09T05:00:21.012Z,7.90
2018-05-09T05:02:54.586Z,8.52
2018-05-09T05:05:28.125Z,8.18
2018-05-09T05:08:02.584Z,8.75
2018-05-09T05:10:36.118Z,8.25
2018-05-09T05:13:09.698Z,8.30
2018-05-09T05:15:43.312Z,9.38
2018-05-09T05:18:16.822Z,9.15
2018-05-09T05:20:50.401Z,7.75
2018-05-09T05:23:24.944Z,8.73
2018-05-09T05:25:59.446Z,8.48
2018-05-09T05:28:33.858Z,9.07
2018-05-09T05:31:07.474Z,9.50
2018-05-09T05:33:41.068Z,9.10
2018-05-09T05:36:14.660Z,7.82
2018-05-09T05:38:48.321Z,7.47
2018-05-09T05:41:21.811Z,8.75
2018-05-09T05:43:55.344Z,7.25
2018-05-09T05:46:29.684Z,8.95
2018-05-09T05:49:03.414Z,8.60
2018-05-09T05:51:36.980Z,9.10
2018-05-09T05:54:10.738Z,7.82
2018-05-09T05:56:45.124Z,8.13
2018-05-09T05:59:18.847Z,7.50
2018-05-09T06:01:52.412Z,7.90
2018-05-09T06:04:25.940Z,8.25
2018-05-09T06:06:59.487Z,7.80
2018-05-09T06:09:33.043Z,6.93
2018-05-09T06:12:06.625Z,9.38
2018-05-09T06:14:40.145Z,8.20
2018-05-09T06:17:14.559Z,7.97
2018-05-09T06:19:48.111Z,7.45
2018-05-09T06:22:21.640Z,8.90
2018-05-09T06:24:55.253Z,8.32
2018-05-09T06:27:28.955Z,8.43
2018-05-09T06:30:02.796Z,8.10
2018-05-09T06:32:36.528Z,7.78
2018-05-09T06:35:10.107Z,8.57
2018-05-09T06:37:44.466Z,8.18
2018-05-09T06:40:17.995Z,7.80
2018-05-09T06:42:51.528Z,7.30
2018-05-09T06:45:25.063Z,7.80
2018-05-09T06:47:58.581Z,7.07
2018-05-09T06:50:32.884Z,7.57
2018-05-09T06:53:06.590Z,7.47
2018-05-09T06:55:40.173Z,7.32
2018-05-09T06:58:13.712Z,6.30
2018-05-09T07:00:47.287Z,7.45
2018-05-09T07:03:20.875Z,6.68
2018-05-09T07:05:54.463Z,7.95
2018-05-09T07:08:27.963Z,9.80
2018-05-09T07:11:01.503Z,7.90
2018-05-09T07:13:35.087Z,7.12
2018-05-09T07:16:08.795Z,7.53
2018-05-09T07:18:42.379Z,7.00
2018-05-09T07:21:15.925Z,7.35
2018-05-09T07:23:49.592Z,7.80
2018-05-09T07:26:23.187Z,6.55
2018-05-09T07:28:56.701Z,6.78
2018-05-09T07:31:30.246Z,7.00
2018-05-09T07:34:03.836Z,7.05
2018-05-09T07:36:37.390Z,7.12
2018-05-09T07:39:11.711Z,7.00
2018-05-09T07:41:45.216Z,6.60
2018-05-09T07:44:18.793Z,7.47
2018-05-09T07:46:52.348Z,6.60
2018-05-09T07:49:25.864Z,8.00
2018-05-09T07:52:00.224Z,7.00
2018-05-09T07:54:33.877Z,6.28
2018-05-09T07:57:07.550Z,6.00
2018-05-09T07:59:41.096Z,7.35
2018-05-09T08:02:14.681Z,6.50
2018-05-09T08:04:48.231Z,6.90
2018-05-09T08:07:22.651Z,7.30
2018-05-09T08:09:56.253Z,7.37
2018-05-09T08:12:29.791Z,7.28
2018-05-09T08:15:03.352Z,6.68
2018-05-09T08:17:36.939Z,6.25
2018-05-09T08:20:10.484Z,6.35
2018-05-09T08:22:44.168Z,7.12
2018-05-09T08:25:17.746Z,6.65
2018-05-09T08:27:51.294Z,6.80
2018-05-09T08:30:24.857Z,6.95
2018-05-09T08:32:58.443Z,6.60
2018-05-09T08:35:32.044Z,7.30
2018-05-09T08:38:05.598Z,7.32
2018-05-09T08:40:39.125Z,6.50
2018-05-09T08:43:12.781Z,6.95
2018-05-09T08:45:46.356Z,7.18
2018-05-09T08:48:19.879Z,7.25
2018-05-09T08:50:53.415Z,7.37
2018-05-09T08:53:27.098Z,6.37
2018-05-09T08:56:01.380Z,6.20
2018-05-09T08:58:35.693Z,6.40
2018-05-09T09:01:10.008Z,6.75
2018-05-09T09:03:43.727Z,6.75
2018-05-09T09:06:17.243Z,6.28
2018-05-09T09:08:50.821Z,6.25
2018-05-09T09:11:24.394Z,7.12
2018-05-09T09:13:57.953Z,6.50
2018-05-09T09:16:31.493Z,6.20
2018-05-09T09:19:04.995Z,6.10
2018-05-09T09:21:39.308Z,5.40
2018-05-09T09:24:12.994Z,5.78
2018-05-09T09:26:46.563Z,6.60
2018-05-09T09:29:20.228Z,6.45
2018-05-09T09:31:53.638Z,5.90
2018-05-09T09:34:27.180Z,6.35
2018-05-09T09:37:00.836Z,5.57
2018-05-09T09:39:34.362Z,5.12
2018-05-09T09:42:07.932Z,5.45
2018-05-09T09:44:41.441Z,4.62
2018-05-09T09:47:15.021Z,4.47
2018-05-09T09:49:48.560Z,7.10
2018-05-09T09:52:22.116Z,6.80
2018-05-09T09:54:55.615Z,6.05
2018-05-09T09:57:29.931Z,5.95
2018-05-09T10:00:03.690Z,6.18
2018-05-09T10:02:37.256Z,5.60
2018-05-09T10:05:10.824Z,5.80
2018-05-09T10:07:44.368Z,4.87
2018-05-09T10:10:17.921Z,5.30
2018-05-09T10:12:51.477Z,4.90
2018-05-09T10:15:25.058Z,5.00
2018-05-09T10:17:58.631Z,4.85
2018-05-09T10:20:32.213Z,4.57
2018-05-09T10:23:06.570Z,4.60
2018-05-09T10:25:40.905Z,5.50
2018-05-09T10:28:15.192Z,4.65
2018-05-09T10:30:48.837Z,4.12
2018-05-09T10:33:23.128Z,3.70
2018-05-09T10:35:56.740Z,3.60
2018-05-09T10:38:30.297Z,3.70
2018-05-09T10:41:04.016Z,3.75
2018-05-09T10:43:37.677Z,5.28
2018-05-09T10:46:11.563Z,4.97
2018-05-09T10:48:45.108Z,3.87
2018-05-09T10:51:18.690Z,4.22
2018-05-09T10:53:52.260Z,3.95
2018-05-09T10:56:25.815Z,3.95
2018-05-09T10:59:00.140Z,3.30
2018-05-09T11:01:34.558Z,3.05
2018-05-09T11:04:08.154Z,3.30
2018-05-09T11:06:41.708Z,3.80
2018-05-09T11:09:15.281Z,3.20
2018-05-09T11:11:48.864Z,3.30
2018-05-09T11:14:22.447Z,2.90
2018-05-09T11:16:55.984Z,3.20
2018-05-09T11:19:29.657Z,5.30
2018-05-09T11:22:03.263Z,5.70
2018-05-09T11:24:36.826Z,4.55
2018-05-09T11:27:10.294Z,4.93
2018-05-09T11:29:43.979Z,5.15
2018-05-09T11:32:18.425Z,4.50
2018-05-09T11:34:53.408Z,4.70
2018-05-09T11:37:27.058Z,4.45
2018-05-09T11:40:00.624Z,4.40
2018-05-09T11:42:34.391Z,3.95
2018-05-09T11:45:07.966Z,4.15
2018-05-09T11:47:41.525Z,5.70
2018-05-09T11:50:15.128Z,4.22
2018-05-09T11:52:48.721Z,4.60
2018-05-09T11:55:22.331Z,4.30
2018-05-09T11:57:55.919Z,5.93
2018-05-09T12:00:29.551Z,5.50
2018-05-09T12:03:03.062Z,5.78
2018-05-09T12:05:36.602Z,5.20
2018-05-09T12:08:10.231Z,5.30
2018-05-09T12:10:43.821Z,4.80
2018-05-09T12:13:17.361Z,4.68
2018-05-09T12:15:50.942Z,5.90
2018-05-09T12:18:24.517Z,6.05
2018-05-09T12:20:58.148Z,4.93
2018-05-09T12:23:31.731Z,5.28
2018-05-09T12:26:05.637Z,5.10
2018-05-09T12:28:39.334Z,5.20
2018-05-09T12:31:13.654Z,4.80
2018-05-09T12:33:47.393Z,4.50
2018-05-09T12:36:21.023Z,4.45
2018-05-09T12:38:54.481Z,5.30
2018-05-09T12:41:28.088Z,5.18
2018-05-09T12:44:01.646Z,4.32
2018-05-09T12:46:35.201Z,4.57
2018-05-09T12:49:08.768Z,5.37
2018-05-09T12:51:42.362Z,6.05
2018-05-09T12:54:15.865Z,4.50
2018-05-09T12:56:49.469Z,4.82
2018-05-09T12:59:23.773Z,4.28
2018-05-09T13:01:57.453Z,4.25
2018-05-09T13:04:32.115Z,3.65
2018-05-09T13:07:05.675Z,4.12
2018-05-09T13:09:40.013Z,4.57
2018-05-09T13:12:13.623Z,4.22
2018-05-09T13:14:47.952Z,6.50
2018-05-09T13:17:22.367Z,6.03
2018-05-09T13:19:55.888Z,6.53
2018-05-09T13:22:29.429Z,5.20
2018-05-09T13:25:03.010Z,5.70
2018-05-09T13:27:37.291Z,5.85
2018-05-09T13:30:11.719Z,5.15
2018-05-09T13:32:45.404Z,6.18
2018-05-09T13:35:19.046Z,5.53
2018-05-09T13:37:52.593Z,5.10
2018-05-09T13:40:26.141Z,5.93
2018-05-09T13:42:59.700Z,6.65
2018-05-09T13:45:33.223Z,5.32
2018-05-09T13:48:06.828Z,5.25
2018-05-09T13:50:40.370Z,5.43
2018-05-09T13:53:14.100Z,5.47
2018-05-09T13:55:47.703Z,4.43
2018-05-09T13:58:22.007Z,4.47
2018-05-09T14:00:55.648Z,4.32
2018-05-09T14:03:29.333Z,3.60
2018-05-09T14:06:02.851Z,3.55
2018-05-09T14:08:36.398Z,3.90
2018-05-09T14:11:09.984Z,3.10
2018-05-09T14:13:43.524Z,3.45
2018-05-09T14:16:17.145Z,3.80
2018-05-09T14:18:50.710Z,4.00
2018-05-09T14:21:24.196Z,3.62
2018-05-09T14:23:57.723Z,3.60
2018-05-09T14:26:31.236Z,4.10
2018-05-09T14:29:04.772Z,3.42
2018-05-09T14:31:38.329Z,3.15
2018-05-09T14:34:11.948Z,3.22
2018-05-09T14:36:46.242Z,4.07
2018-05-09T14:39:20.842Z,3.30
2018-05-09T14:41:54.562Z,2.75
2018-05-09T14:44:28.170Z,3.10
2018-05-09T14:47:01.674Z,4.25
2018-05-09T14:49:35.254Z,2.65
2018-05-09T14:52:09.578Z,2.92
2018-05-09T14:54:43.148Z,2.70
2018-05-09T14:57:16.797Z,3.12
2018-05-09T14:59:51.110Z,2.65
2018-05-09T15:02:24.820Z,2.40
2018-05-09T15:04:58.398Z,2.60
2018-05-09T15:07:32.716Z,2.40
2018-05-09T15:10:06.305Z,2.30
2018-05-09T15:12:39.905Z,2.40
2018-05-09T15:15:13.418Z,2.50
2018-05-09T15:17:46.952Z,2.42
2018-05-09T15:20:20.575Z,2.42
2018-05-09T15:22:54.137Z,4.00
2018-05-09T15:25:27.691Z,2.90
2018-05-09T15:28:01.235Z,2.83
2018-05-09T15:30:34.852Z,3.03
2018-05-09T15:33:08.365Z,3.30
2018-05-09T15:35:41.961Z,3.00
2018-05-09T15:38:16.339Z,3.40
2018-05-09T15:40:50.660Z,2.70
2018-05-09T15:43:24.372Z,3.22
2018-05-09T15:45:57.976Z,3.20
2018-05-09T15:48:31.583Z,3.00
2018-05-09T15:51:05.164Z,3.12
2018-05-09T15:53:38.693Z,3.15
2018-05-09T15:56:12.191Z,2.80
2018-05-09T15:58:45.766Z,3.25
2018-05-09T16:01:20.047Z,3.05
2018-05-09T16:03:53.735Z,3.28
2018-05-09T16:06:27.317Z,3.15
2018-05-09T16:09:00.873Z,2.92
2018-05-09T16:11:34.392Z,2.60
2018-05-09T16:14:08.724Z,2.90
2018-05-09T16:16:43.108Z,2.50
2018-05-09T16:19:16.808Z,2.58
2018-05-09T16:21:50.360Z,2.70
2018-05-09T16:24:23.907Z,2.60
2018-05-09T16:26:57.444Z,2.70
2018-05-09T16:29:30.974Z,2.40
2018-05-09T16:32:04.636Z,2.62
2018-05-09T16:34:38.269Z,2.85
2018-05-09T16:37:11.813Z,3.40
2018-05-09T16:39:45.416Z,3.33
2018-05-09T16:42:18.985Z,3.03
2018-05-09T16:44:52.799Z,3.33
2018-05-09T16:47:26.357Z,2.78
2018-05-09T16:49:59.912Z,2.67
2018-05-09T16:52:33.417Z,3.87
2018-05-09T16:55:07.032Z,3.10
2018-05-09T16:57:41.342Z,2.67
2018-05-09T17:00:15.072Z,3.30
2018-05-09T17:02:48.655Z,2.55
2018-05-09T17:05:22.203Z,2.75
2018-05-09T17:07:56.665Z,2.90
2018-05-09T17:10:30.384Z,2.50
2018-05-09T17:13:05.472Z,2.22
2018-05-09T17:15:39.133Z,2.15
2018-05-09T17:18:12.752Z,2.00
2018-05-09T17:20:46.332Z,2.40
2018-05-09T17:23:20.641Z,2.33
2018-05-09T17:25:54.177Z,2.20
2018-05-09T17:28:28.645Z,2.28
2018-05-09T17:31:02.263Z,2.20
2018-05-09T17:33:35.844Z,2.20
2018-05-09T17:36:09.447Z,2.40
2018-05-09T17:38:43.043Z,2.60
2018-05-09T17:41:16.591Z,2.08
2018-05-09T17:43:50.151Z,2.20
2018-05-09T17:46:23.682Z,3.50
2018-05-09T17:48:57.353Z,2.50
2018-05-09T17:51:30.939Z,2.40
2018-05-09T17:54:04.479Z,2.40
2018-05-09T17:56:38.047Z,2.30
2018-05-09T17:59:11.555Z,2.17
2018-05-09T18:01:45.879Z,2.05
2018-05-09T18:04:19.564Z,2.20
2018-05-09T18:06:53.115Z,2.40
2018-05-09T18:09:27.591Z,2.90
2018-05-09T18:12:01.115Z,2.22
2018-05-09T18:14:34.793Z,2.58
2018-05-09T18:17:08.291Z,2.40
2018-05-09T18:19:41.771Z,2.33
2018-05-09T18:22:15.284Z,2.30
2018-05-09T18:24:49.071Z,2.72
2018-05-09T18:27:22.623Z,2.60
2018-05-09T18:29:57.108Z,2.67
2018-05-09T18:32:31.419Z,2.65
2018-05-09T18:35:05.174Z,3.37
2018-05-09T18:37:39.518Z,2.60
2018-05-09T18:40:13.254Z,3.28
2018-05-09T18:42:46.947Z,3.05
2018-05-09T18:45:20.565Z,3.15
2018-05-09T18:47:54.115Z,3.87
2018-05-09T18:50:27.671Z,3.30
2018-05-09T18:53:01.261Z,3.30
2018-05-09T18:55:34.976Z,3.85
2018-05-09T18:58:08.551Z,3.17
2018-05-09T19:00:42.111Z,2.85
2018-05-09T19:03:15.744Z,3.75
2018-05-09T19:05:49.383Z,3.50
2018-05-09T19:08:23.737Z,3.97
2018-05-09T19:10:57.416Z,3.45
2018-05-09T19:13:31.000Z,4.00
2018-05-09T19:16:04.498Z,4.75
2018-05-09T19:18:38.061Z,4.50
2018-05-09T19:21:11.690Z,9.98
2018-05-09T19:23:45.227Z,6.40
2018-05-09T19:26:19.619Z,4.05
2018-05-09T19:28:53.223Z,3.90
2018-05-09T19:31:26.840Z,4.37
2018-05-09T19:34:00.384Z,3.72
2018-05-09T19:36:34.740Z,3.00
2018-05-09T19:39:08.397Z,3.22
2018-05-09T19:41:42.074Z,3.55
2018-05-09T19:44:16.303Z,3.65
2018-05-09T19:46:49.976Z,3.42
2018-05-09T19:49:23.550Z,3.87
2018-05-09T19:51:57.149Z,4.40
2018-05-09T19:54:30.667Z,4.05
2018-05-09T19:57:04.248Z,4.37
2018-05-09T19:59:37.836Z,4.10
2018-05-09T20:02:11.460Z,4.25
2018-05-09T20:04:45.047Z,3.80
2018-05-09T20:07:18.593Z,3.35
2018-05-09T20:09:52.144Z,4.50
2018-05-09T20:12:25.647Z,4.40
2018-05-09T20:14:59.241Z,4.32
2018-05-09T20:17:32.845Z,4.32
2018-05-09T20:20:06.368Z,3.60
2018-05-09T20:22:39.964Z,3.90
2018-05-09T20:25:13.502Z,3.47
2018-05-09T20:27:47.966Z,3.97
2018-05-09T20:30:28.075Z,3.70
2018-05-09T20:33:01.674Z,3.55
2018-05-09T20:35:35.457Z,3.87
2018-05-09T20:38:09.040Z,4.00
2018-05-09T20:40:42.609Z,4.07
2018-05-09T20:43:16.936Z,4.30
2018-05-09T20:45:51.455Z,4.20
2018-05-09T20:48:25.341Z,4.30
2018-05-09T20:50:58.875Z,5.10
2018-05-09T20:53:32.467Z,4.30
2018-05-09T20:56:06.056Z,4.70
2018-05-09T20:58:39.547Z,5.40
2018-05-09T21:01:25.121Z,4.30
2018-05-09T21:03:58.648Z,4.65
2018-05-09T21:06:32.263Z,4.85
2018-05-09T21:09:05.900Z,4.78
2018-05-09T21:11:39.490Z,4.12
2018-05-09T21:14:13.019Z,4.32
2018-05-09T21:16:46.544Z,4.90
2018-05-09T21:19:20.140Z,5.35
2018-05-09T21:21:53.664Z,5.00
2018-05-09T21:24:27.245Z,4.20
2018-05-09T21:27:00.786Z,4.80
2018-05-09T21:29:34.277Z,4.25
2018-05-09T21:32:07.878Z,4.10
2018-05-09T21:34:41.447Z,4.57
2018-05-09T21:37:15.000Z,4.45
2018-05-09T21:39:48.551Z,4.65
2018-05-09T21:42:22.295Z,4.47
2018-05-09T21:44:55.872Z,4.65
2018-05-09T21:47:29.452Z,4.40
2018-05-09T21:50:03.059Z,4.80
2018-05-09T21:52:36.736Z,5.50
2018-05-09T21:55:11.065Z,4.97
2018-05-09T21:57:44.752Z,5.07
2018-05-09T22:00:18.384Z,5.75
2018-05-09T22:02:52.021Z,5.57
2018-05-09T22:05:25.519Z,5.05
2018-05-09T22:07:59.101Z,5.22
2018-05-09T22:10:32.683Z,5.50
2018-05-09T22:13:06.252Z,6.07
2018-05-09T22:15:39.907Z,5.43
2018-05-09T22:18:13.583Z,5.50
2018-05-09T22:20:47.172Z,4.80
2018-05-09T22:23:20.729Z,4.80
2018-05-09T22:25:54.408Z,5.10
2018-05-09T22:28:28.859Z,4.30
2018-05-09T22:31:02.551Z,4.87
2018-05-09T22:33:36.203Z,5.40
2018-05-09T22:36:09.803Z,5.25
2018-05-09T22:38:43.336Z,5.80
2018-05-09T22:41:16.940Z,6.72
2018-05-09T22:43:50.537Z,6.07
2018-05-09T22:46:24.127Z,5.57
2018-05-09T22:48:57.727Z,4.85
2018-05-09T22:51:31.267Z,5.72
2018-05-09T22:54:04.838Z,4.95
2018-05-09T22:56:38.410Z,5.18
2018-05-09T22:59:11.949Z,4.90
2018-05-09T23:01:45.461Z,5.20
2018-05-09T23:04:19.055Z,5.62
2018-05-09T23:06:52.604Z,5.75
2018-05-09T23:09:26.224Z,5.75
2018-05-09T23:12:00.527Z,5.20
2018-05-09T23:14:34.100Z,5.15
2018-05-09T23:17:07.689Z,4.90
2018-05-09T23:19:41.204Z,5.37
2018-05-09T23:22:14.811Z,5.82
2018-05-09T23:24:48.368Z,5.47
2018-05-09T23:27:22.008Z,4.75
2018-05-09T23:29:55.580Z,4.45
2018-05-09T23:32:29.124Z,13.98
2018-05-09T23:35:02.672Z,4.70
2018-05-09T23:37:36.200Z,4.75
2018-05-09T23:40:09.749Z,4.50
2018-05-09T23:42:43.244Z,4.80
2018-05-09T23:45:16.804Z,5.00
2018-05-09T23:47:50.343Z,5.50
2018-05-09T23:50:23.916Z,5.80
2018-05-09T23:52:58.251Z,4.80
2018-05-09T23:55:32.448Z,4.60
2018-05-09T23:58:06.112Z,5.53
